Station: Minnipa Rs

  Atmospheric Gas Attenuation - ITU Rec 676-11   --------------- db/100km ---------------
Date Time Temp RH % AH g/m3 Dew Point Wind Direction Speed kph Gust kph Barometer mB Rainfall Since 9am 24GHz 47GHz 76GHz 122GHz 134GHz 241GHz
17 01:40 10.9 48 4.78 0.3 19 20 1020.5 0 11.6 21.0 26.8 69.4 53.7 181.3
17 01:30 11 49 4.91 0.7 19 20 1020.6 0 11.8 21.2 27.2 70.6 55.2 186.6
17 01:20 11 49 4.91 0.7 19 20 1020.6 0 11.8 21.2 27.2 70.6 55.2 186.6
17 01:10 11.3 49 5 1 17 19 1020.7 0 12.0 21.3 27.4 71.2 56.1 189.7
17 01:00 11.8 47 4.95 0.9 20 22 1020.8 0 11.9 21.1 27.1 70.3 55.1 186.4
17 00:50 11.8 51 5.37 2 19 20 1020.8 0 12.8 21.7 28.6 74.4 60.2 204.0
17 00:40 11.4 56 5.75 2.9 17 17 1020.9 0 13.6 22.4 30.1 78.5 65.1 221.3
17 00:30 11.1 59 5.94 3.4 17 20 1021 0 14.0 22.7 31.0 80.7 67.7 230.4
17 00:20 11.1 63 6.35 4.3 19 20 1020.9 0 14.9 23.4 32.5 84.8 72.8 248.4
17 00:10 11 67 6.71 5.1 19 20 1021.1 0 15.7 23.9 34.0 88.7 77.5 264.9
17 00:00 10.8 70 6.92 5.6 19 20 1021.3 0 16.1 24.3 34.9 91.1 80.4 275.1
16 23:50 10.8 72 7.12 6 19 19 1021.2 0 16.6 24.7 35.7 93.2 83.0 284.2
16 23:40 10.6 75 7.32 6.4 19 19 1021.2 0 17.0 25.0 36.5 95.6 85.9 294.2
16 23:30 10.8 76 7.51 6.7 19 22 1021.3 0 17.4 25.3 37.2 97.4 88.2 302.3
16 23:20 10.7 76 7.47 6.6 19 19 1021.4 0 17.3 25.3 37.1 97.1 87.8 300.8
16 23:10 11.2 75 7.6 6.9 19 22 1021.4 0 17.6 25.3 37.4 97.9 88.9 304.9
16 23:00 11.2 76 7.7 7.1 20 24 1021.6 0 17.8 25.5 37.8 99.0 90.3 309.6
16 22:50 11 76 7.61 6.9 20 22 1021.6 0 17.6 25.4 37.5 98.3 89.3 306.2
16 22:40 11.2 76 7.7 7.1 22 24 1021.6 0 17.8 25.5 37.8 99.0 90.3 309.6
16 22:30 11 77 7.71 7.1 22 24 1021.7 0 17.8 25.6 38.0 99.4 90.7 310.9
16 22:20 11 78 7.81 7.3 22 24 1021.7 0 18.0 25.7 38.4 100.4 92.0 315.6
16 22:10 11.1 78 7.86 7.4 20 22 1021.7 0 18.1 25.8 38.5 100.9 92.5 317.5
16 22:00 11.1 79 7.96 7.6 20 22 1021.9 0 18.3 26.0 38.9 102.0 93.9 322.3
16 21:50 11.2 79 8.01 7.7 20 22 1021.8 0 18.4 26.0 39.1 102.4 94.5 324.2
16 21:40 11.1 80 8.06 7.8 19 20 1021.9 0 18.6 26.1 39.3 103.1 95.3 327.0
16 21:30 11 79 7.91 7.5 19 20 1022.2 0 18.2 25.9 38.8 101.6 93.4 320.4
16 21:20 11.2 78 7.91 7.5 19 20 1022.2 0 18.2 25.9 38.7 101.3 93.1 319.6
16 21:10 11.3 77 7.86 7.4 19 20 1022.2 0 18.1 25.8 38.4 100.7 92.3 316.9
16 21:00 11.6 76 7.9 7.5 19 22 1022.3 0 18.2 25.7 38.5 100.7 92.5 317.6
16 20:50 11.9 76 8.05 7.8 19 20 1022.3 0 18.5 25.9 38.9 102.0 94.2 323.4
16 20:40 11.8 76 8 7.7 19 19 1022.3 0 18.4 25.8 38.8 101.5 93.6 321.4
16 20:30 11.9 76 8.05 7.8 17 19 1022.4 0 18.5 25.9 38.9 102.0 94.2 323.4
16 20:20 11.9 75 7.94 7.6 17 17 1022.3 0 18.3 25.7 38.5 100.8 92.7 318.2
16 20:10 12.1 75 8.04 7.8 17 17 1022.3 0 18.5 25.8 38.8 101.6 93.8 322.1
16 20:00 12.3 75 8.14 8 17 19 1022.3 0 18.7 25.9 39.1 102.4 94.9 325.9
16 19:50 12.2 75 8.09 7.9 17 19 1022.2 0 18.6 25.9 38.9 102.0 94.3 324.0
16 19:40 12.4 76 8.3 8.3 17 19 1022.2 0 19.0 26.2 39.7 104.0 96.9 332.9
16 19:30 12 78 8.31 8.3 13 17 1022.3 0 19.0 26.3 39.9 104.7 97.5 335.2
16 19:20 10.7 77 7.56 6.8 11 13 1022.1 0 17.5 25.4 37.5 98.2 89.0 305.2
16 19:10 11.5 78 8.06 7.8 13 13 1022 0 18.5 26.0 39.1 102.6 94.8 325.4
16 19:00 11.7 77 8.05 7.8 13 15 1022 0 18.5 25.9 39.0 102.2 94.4 324.1
16 18:50 11.9 76 8.05 7.8 13 13 1021.8 0 18.5 25.9 38.9 101.9 94.1 323.2
16 18:40 12 75 7.99 7.7 15 15 1021.8 0 18.4 25.7 38.6 101.1 93.2 320.0
16 18:30 12 73 7.78 7.3 13 13 1022 0 17.9 25.4 37.8 98.9 90.4 310.3
16 18:20 12.3 69 7.49 6.8 11 11 1022 0 17.3 24.9 36.5 95.4 86.3 295.8
16 18:10 13.1 66 7.53 6.9 13 15 1021.9 0 17.3 24.7 36.3 94.9 85.9 294.6
16 18:00 14.1 65 7.89 7.6 11 15 1022 0 18.1 25.0 37.2 97.4 89.5 307.1
16 17:50 14.4 62 7.66 7.2 11 13 1022 0 17.6 24.6 36.2 94.7 86.2 295.7
16 17:40 14.3 60 7.37 6.6 11 13 1022 0 16.9 24.1 35.1 91.8 82.6 283.2
16 17:30 16 53 7.22 6.4 7 11 1022.1 0 16.6 23.5 33.8 88.4 79.0 270.8
16 17:20 16.9 50 7.19 6.4 6 7 1022.1 0 16.5 23.2 33.4 87.1 77.8 266.5
16 17:10 18.2 46 7.15 6.4 4 6 1022 0 16.3 22.8 32.7 85.4 76.0 260.5
16 17:00 18.8 42 6.76 5.6 7 11 1022.1 0 15.5 22.1 31.1 81.1 70.9 242.7
16 16:50 19 39 6.35 4.7 7 9 1021.9 0 14.6 21.5 29.6 77.0 66.0 225.5
16 16:40 19.3 38 6.3 4.6 7 9 1021.9 0 14.5 21.3 29.3 76.3 65.2 222.7
16 16:30 19.3 35 5.8 3.5 7 11 1022.1 0 13.4 20.6 27.6 71.8 59.6 203.0
16 16:20 19.4 37 6.17 4.3 11 13 1022 0 14.2 21.1 28.8 75.0 63.7 217.3
16 16:10 19.7 37 6.28 4.6 11 15 1022 0 14.4 21.2 29.1 75.7 64.7 220.8
16 16:00 19.4 36 6.01 4 9 13 1022.2 0 13.9 20.9 28.3 73.6 61.9 211.0
16 15:50 19.4 37 6.17 4.3 11 13 1022.1 0 14.2 21.1 28.8 75.0 63.7 217.3
16 15:40 19.7 35 5.94 3.8 11 13 1022.1 0 13.7 20.7 27.9 72.7 60.9 207.5
16 15:30 19.3 35 5.8 3.5 11 13 1022.3 0 13.4 20.6 27.6 71.8 59.6 203.1
16 15:20 19.6 34 5.74 3.3 9 11 1022.2 0 13.3 20.5 27.3 71.0 58.7 200.0
16 15:10 19.5 35 5.87 3.6 11 13 1022.3 0 13.6 20.7 27.8 72.2 60.3 205.3
16 15:00 19.1 35 5.74 3.3 9 17 1022.3 0 13.3 20.6 27.5 71.4 59.1 201.2
16 14:50 19.1 39 6.39 4.8 11 11 1022.2 0 14.7 21.5 29.7 77.3 66.4 226.9
16 14:40 18.9 39 6.32 4.7 13 15 1022.2 0 14.5 21.5 29.5 76.9 65.8 224.6
16 14:30 19.1 38 6.23 4.5 9 17 1022.3 0 14.3 21.3 29.1 75.9 64.6 220.5
16 14:20 18.9 40 6.48 5 9 11 1022.3 0 14.9 21.7 30.1 78.4 67.6 231.1
16 14:10 18.6 41 6.52 5.1 9 11 1022.4 0 15.0 21.8 30.3 79.0 68.3 233.6
16 14:00 18.4 41 6.45 4.9 13 17 1022.5 0 14.8 21.8 30.1 78.6 67.7 231.3
16 13:50 18.4 40 6.29 4.6 15 19 1022.4 0 14.5 21.5 29.6 77.1 65.9 224.8
16 13:40 18 43 6.6 5.2 13 15 1022.4 0 15.2 22.1 30.8 80.4 69.8 238.5
16 13:30 17.8 43 6.53 5.1 11 15 1022.7 0 15.0 22.0 30.6 79.9 69.1 236.3
16 13:20 17.5 44 6.56 5.1 9 11 1022.7 0 15.1 22.1 30.9 80.5 69.8 238.4
16 13:10 17.2 44 6.44 4.9 9 11 1022.8 0 14.9 22.0 30.6 79.7 68.6 234.4
16 13:00 17 45 6.51 5 9 13 1023.2 0 15.0 22.2 30.9 80.6 69.6 237.9
16 12:50 16.8 45 6.43 4.8 11 13 1023.2 0 14.9 22.1 30.7 80.0 68.9 235.2
16 12:40 16.8 53 7.58 7.2 7 9 1023.4 0 17.3 23.8 34.9 91.2 82.7 283.8
16 12:30 16.3 57 7.91 7.8 9 20 1023.8 0 18.0 24.5 36.4 95.2 87.4 300.1
16 12:20 15.7 61 8.16 8.2 7 13 1023.9 0 18.6 25.0 37.6 98.5 91.2 313.5
16 12:10 15.4 62 8.15 8.2 11 13 1024.1 0 18.5 25.1 37.7 98.8 91.5 314.3
16 12:00 15 65 8.33 8.5 9 13 1024.4 0 18.9 25.5 38.6 101.2 94.3 324.1
16 11:50 14.5 67 8.33 8.5 11 13 1024.5 0 19.0 25.7 38.9 101.8 94.9 326.2
16 11:40 14.2 71 8.67 9 11 13 1024.6 0 19.7 26.3 40.4 105.9 99.7 343.1
16 11:30 13.8 76 9.06 9.6 15 19 1024.8 0 20.6 27.1 42.2 110.7 105.5 363.3
16 11:20 13.5 78 9.12 9.7 15 19 1024.7 0 20.7 27.3 42.6 111.7 106.7 367.5
16 11:10 13.3 84 9.71 10.7 15 17 1024.8 0 22.0 28.3 45.2 118.7 115.2 397.0
16 11:00 12.4 86 9.4 10.1 15 20 1025 0 21.4 28.1 44.4 116.5 112.2 386.4
16 10:50 12.1 87 9.33 10 13 17 1025.1 0 21.2 28.1 44.3 116.2 111.7 384.5
16 10:40 11.8 89 9.37 10 15 17 1025.1 0 21.3 28.2 44.6 117.1 112.7 388.0
16 10:30 11.2 90 9.12 9.6 13 17 1025.4 0 20.8 28.0 43.9 115.2 110.0 378.7
16 10:20 11.2 92 9.33 9.9 13 13 1025.4 0 21.3 28.4 44.8 117.6 113.0 389.1
16 10:10 10.7 93 9.14 9.6 11 13 1025.5 0 20.9 28.2 44.3 116.2 111.1 382.2
16 10:00 10.2 92 8.76 9 13 17 1025.6 0 20.1 27.7 42.9 112.5 106.4 365.9
16 09:50 10.1 92 8.7 8.9 13 15 1025.5 0 20.0 27.7 42.7 112.0 105.7 363.4
16 09:40 10 92 8.65 8.8 13 15 1025.6 0 19.9 27.6 42.6 111.6 105.1 361.4
16 09:30 9.8 93 8.63 8.7 13 17 1025.7 0 19.8 27.6 42.6 111.6 105.1 361.4
16 09:20 9.5 92 8.38 8.3 17 17 1025.6 0 19.3 27.3 41.7 109.2 102.0 350.4
16 09:10 9.4 92 8.32 8.2 11 13 1025.6 0 19.2 27.2 41.5 108.7 101.3 347.9

Last Refresh: 17-Jul-2020 01:55:29

Most of the information presented on this site is sourced from the Bureau of Meteorology.  Copyright in all material sourced from the Bureau of Meteorology resides with the Commonwealth of Australia.